Time;durP1;ratioP1;P1;durP2;ratioP2;P2;SDS_P1;SDS_P2;PMS_P1;PMS_P2;Temp;Humidity;BMP_temperature;BMP_pressure;BME280_temperature;BME280_humidity;BME280_pressure;Samples;Min_cycle;Max_cycle;Signal;HPM_P1;HPM_P2
2022/11/03 00:01:34;;;;;;;5.37;4.10;;;7.70;99.90;;;;;;5014777;28;20459;-72
2022/11/03 00:04:00;;;;;;;8.97;3.60;;;7.70;99.90;;;;;;4995655;28;20499;-71
2022/11/03 00:06:25;;;;;;;9.07;4.23;;;7.60;99.90;;;;;;4996482;28;20949;-71
2022/11/03 00:08:51;;;;;;;5.67;4.37;;;7.60;99.90;;;;;;4977148;28;20650;-71
2022/11/03 00:11:17;;;;;;;7.90;4.10;;;7.60;99.90;;;;;;4986612;28;20174;-70
2022/11/03 00:13:46;;;;;;;5.70;4.20;;;7.60;99.90;;;;;;4990601;28;20267;-71
2022/11/03 00:16:12;;;;;;;6.43;4.20;;;7.60;99.90;;;;;;4992786;28;20427;-71
2022/11/03 00:18:38;;;;;;;4.47;3.40;;;7.50;99.90;;;;;;4994164;28;20497;-71
2022/11/03 00:21:09;;;;;;;6.77;4.00;;;7.50;99.90;;;;;;4994207;28;20196;-72
2022/11/03 00:23:36;;;;;;;9.40;4.07;;;7.40;99.90;;;;;;4989412;28;20455;-72
2022/11/03 00:26:03;;;;;;;5.70;3.60;;;7.40;99.90;;;;;;4991148;28;20823;-71
2022/11/03 00:28:33;;;;;;;5.90;4.20;;;7.40;99.90;;;;;;4992469;28;20404;-72
2022/11/03 00:31:07;;;;;;;4.30;3.83;;;7.40;99.90;;;;;;4995396;28;20965;-73
2022/11/03 00:33:32;;;;;;;7.43;4.13;;;7.40;99.90;;;;;;4993491;28;20463;-73
2022/11/03 00:36:00;;;;;;;6.87;3.70;;;7.40;99.90;;;;;;4992516;28;20407;-73
2022/11/03 00:38:26;;;;;;;5.27;3.80;;;7.40;99.90;;;;;;4993983;28;20165;-72
2022/11/03 00:40:53;;;;;;;7.00;4.00;;;7.40;99.90;;;;;;4991474;28;20459;-72
2022/11/03 00:43:20;;;;;;;4.43;3.80;;;7.30;99.90;;;;;;4983126;28;20452;-73
2022/11/03 00:45:45;;;;;;;7.90;3.40;;;7.30;99.90;;;;;;4993475;28;20404;-74
2022/11/03 00:48:29;;;;;;;5.40;3.50;;;7.30;99.90;;;;;;4993261;28;20431;-72
2022/11/03 00:51:17;;;;;;;7.10;3.60;;;7.20;99.90;;;;;;4990894;28;20169;-72
2022/11/03 00:53:57;;;;;;;12.47;4.37;;;7.20;99.90;;;;;;4994123;28;20436;-72
2022/11/03 00:56:29;;;;;;;14.63;4.30;;;7.20;99.90;;;;;;4992246;28;20416;-72
2022/11/03 00:58:57;;;;;;;7.30;4.00;;;7.20;99.90;;;;;;4993552;28;20478;-72
2022/11/03 01:01:25;;;;;;;6.47;4.00;;;7.20;99.90;;;;;;4991607;28;20818;-72
2022/11/03 01:06:49;;;;;;;14.50;4.30;;;7.20;99.90;;;;;;4993446;28;20918;-72
2022/11/03 01:09:20;;;;;;;4.90;2.90;;;7.20;99.90;;;;;;4987502;28;20455;-73
2022/11/03 01:12:06;;;;;;;4.30;3.40;;;7.10;99.90;;;;;;4992003;28;20423;-74
2022/11/03 01:14:51;;;;;;;7.37;3.17;;;7.20;99.90;;;;;;4992636;28;20778;-72
2022/11/03 01:17:18;;;;;;;5.00;3.07;;;7.20;99.90;;;;;;4993361;28;20420;-72
2022/11/03 01:19:44;;;;;;;3.90;3.53;;;7.10;99.90;;;;;;4993063;28;20448;-72
2022/11/03 01:22:11;;;;;;;6.83;3.63;;;7.10;99.90;;;;;;4993196;28;20427;-71
2022/11/03 01:24:37;;;;;;;6.77;3.63;;;7.10;99.90;;;;;;4992744;28;20185;-71
2022/11/03 01:27:03;;;;;;;6.30;3.77;;;7.20;99.90;;;;;;4985112;28;20439;-73
2022/11/03 01:29:28;;;;;;;9.40;4.07;;;7.20;99.90;;;;;;4990086;28;20757;-72
2022/11/03 01:31:54;;;;;;;4.00;3.47;;;7.10;99.90;;;;;;4991446;28;20169;-73
2022/11/03 01:34:21;;;;;;;5.17;3.50;;;7.20;99.90;;;;;;4992556;28;20181;-72
2022/11/03 01:36:47;;;;;;;14.53;3.70;;;7.10;99.90;;;;;;4992984;28;20333;-72
2022/11/03 01:39:15;;;;;;;6.17;4.07;;;7.20;99.90;;;;;;4995951;28;20414;-72
2022/11/03 01:41:42;;;;;;;8.30;3.20;;;7.30;99.90;;;;;;4994464;28;20993;-72
2022/11/03 01:44:07;;;;;;;12.17;4.20;;;7.20;99.90;;;;;;4993335;28;20454;-72
2022/11/03 01:47:06;;;;;;;5.20;3.27;;;7.20;99.90;;;;;;5011894;28;20768;-73
2022/11/03 01:49:47;;;;;;;7.87;3.10;;;7.30;99.90;;;;;;4982533;28;20619;-73
2022/11/03 01:52:19;;;;;;;5.00;3.33;;;7.20;99.90;;;;;;4992749;28;20448;-72
2022/11/03 01:54:50;;;;;;;5.23;4.33;;;7.30;99.90;;;;;;4988160;28;20440;-72
2022/11/03 01:57:23;;;;;;;6.77;3.70;;;7.30;99.90;;;;;;4982649;28;20936;-72
2022/11/03 01:59:49;;;;;;;4.60;2.90;;;7.20;99.90;;;;;;4988467;28;20921;-72
2022/11/03 02:02:14;;;;;;;6.00;2.50;;;7.20;99.90;;;;;;5012477;28;20793;-71
2022/11/03 02:04:41;;;;;;;3.20;2.90;;;7.20;99.90;;;;;;5058082;23;20492;-68
2022/11/03 02:07:19;;;;;;;5.50;2.90;;;7.10;99.90;;;;;;5034818;28;20165;-68
2022/11/03 02:09:44;;;;;;;4.80;3.13;;;7.10;99.90;;;;;;5031146;28;20505;-68
2022/11/03 02:12:10;;;;;;;14.63;3.43;;;7.10;99.90;;;;;;5032469;28;20406;-68
2022/11/03 02:14:48;;;;;;;8.67;4.63;;;7.10;99.90;;;;;;5032498;28;20279;-67
2022/11/03 02:17:14;;;;;;;5.57;3.67;;;7.10;99.90;;;;;;5032996;28;20445;-67
2022/11/03 02:19:43;;;;;;;5.50;3.40;;;7.10;99.90;;;;;;5032630;28;20481;-68
2022/11/03 02:22:41;;;;;;;8.73;3.53;;;7.10;99.90;;;;;;5028785;28;20862;-67
2022/11/03 02:25:41;;;;;;;3.50;3.10;;;7.10;99.90;;;;;;4983261;28;20625;-67
2022/11/03 02:28:07;;;;;;;11.47;4.30;;;7.00;99.90;;;;;;4991070;28;20397;-68
2022/11/03 02:31:12;;;;;;;3.83;3.00;;;7.00;99.90;;;;;;4990292;28;20412;-68
2022/11/03 02:33:58;;;;;;;6.63;3.37;;;7.00;99.90;;;;;;4992677;28;20426;-68
2022/11/03 02:36:34;;;;;;;6.17;2.93;;;7.00;99.90;;;;;;4992646;28;20447;-69
2022/11/03 02:39:08;;;;;;;6.23;3.80;;;7.00;99.90;;;;;;4992694;28;20416;-67
2022/11/03 02:41:36;;;;;;;10.07;3.40;;;7.00;99.90;;;;;;5003260;28;20463;-67
2022/11/03 02:44:04;;;;;;;5.63;3.23;;;7.00;99.90;;;;;;5007664;28;20847;-67
2022/11/03 02:46:31;;;;;;;5.73;2.97;;;7.00;99.90;;;;;;5010301;28;20427;-68
2022/11/03 02:48:57;;;;;;;10.00;3.30;;;7.00;99.90;;;;;;5012034;28;20406;-67
2022/11/03 02:51:24;;;;;;;2.93;2.57;;;7.00;99.90;;;;;;5010798;28;20490;-67
2022/11/03 02:54:01;;;;;;;6.67;4.23;;;7.00;99.90;;;;;;5011643;28;20275;-67
2022/11/03 02:56:30;;;;;;;4.40;2.90;;;7.00;99.90;;;;;;5011178;28;20407;-67
2022/11/03 02:59:08;;;;;;;4.30;3.47;;;7.00;99.90;;;;;;5017748;28;20418;-68
2022/11/03 03:01:54;;;;;;;4.43;2.70;;;6.90;99.90;;;;;;4995400;28;20456;-67
2022/11/03 03:04:30;;;;;;;2.37;2.23;;;6.90;99.90;;;;;;4991167;28;20451;-67
2022/11/03 03:07:14;;;;;;;8.30;3.17;;;6.90;99.90;;;;;;4992198;28;20744;-67
2022/11/03 03:09:45;;;;;;;4.97;2.80;;;6.90;99.90;;;;;;4991913;28;20415;-69
2022/11/03 03:12:14;;;;;;;4.03;2.70;;;6.90;99.90;;;;;;4991017;28;20788;-68
2022/11/03 03:14:43;;;;;;;5.67;3.10;;;6.90;99.90;;;;;;4992238;28;20498;-67
2022/11/03 03:17:38;;;;;;;4.20;2.30;;;6.90;99.90;;;;;;5000768;28;20447;-67
2022/11/03 03:20:31;;;;;;;7.57;3.30;;;6.80;99.90;;;;;;5007948;28;20458;-68
2022/11/03 03:22:57;;;;;;;2.93;2.40;;;6.80;99.90;;;;;;5003176;28;20526;-67
2022/11/03 03:25:28;;;;;;;3.63;3.33;;;6.80;99.90;;;;;;5010108;28;20431;-68
2022/11/03 03:28:14;;;;;;;7.90;4.53;;;6.80;99.90;;;;;;5011508;28;20172;-69
2022/11/03 03:30:41;;;;;;;6.03;3.07;;;6.80;99.90;;;;;;5011081;28;20499;-69
2022/11/03 03:33:08;;;;;;;9.10;2.90;;;6.80;99.90;;;;;;5010505;28;20509;-67
2022/11/03 03:35:37;;;;;;;5.23;2.57;;;6.80;99.90;;;;;;5011192;28;20831;-68
2022/11/03 03:38:12;;;;;;;6.00;2.50;;;6.80;99.90;;;;;;5011907;28;20435;-68
2022/11/03 03:40:41;;;;;;;3.70;3.23;;;6.80;99.90;;;;;;5012129;28;20519;-68
2022/11/03 03:43:10;;;;;;;6.57;2.80;;;6.80;99.90;;;;;;5011594;28;20407;-68
2022/11/03 03:45:37;;;;;;;2.90;2.70;;;6.80;99.90;;;;;;5010945;28;20423;-67
2022/11/03 03:48:04;;;;;;;7.20;2.80;;;6.80;99.90;;;;;;5004846;28;21208;-68
2022/11/03 03:50:34;;;;;;;6.50;3.30;;;6.80;99.90;;;;;;5010365;28;20825;-68
2022/11/03 03:53:01;;;;;;;7.57;2.93;;;6.80;99.90;;;;;;5011373;28;20411;-69
2022/11/03 03:55:36;;;;;;;6.07;3.00;;;6.80;99.90;;;;;;5011195;28;20461;-69
2022/11/03 03:58:03;;;;;;;6.30;2.93;;;6.70;99.90;;;;;;5009614;28;20415;-67
2022/11/03 04:00:29;;;;;;;7.33;3.30;;;6.70;99.90;;;;;;5029338;28;21037;-68
2022/11/03 04:02:56;;;;;;;4.37;2.53;;;6.70;99.90;;;;;;5019094;28;20439;-68
2022/11/03 04:05:22;;;;;;;4.83;2.80;;;6.70;99.90;;;;;;4996462;28;20703;-68
2022/11/03 04:07:48;;;;;;;9.43;2.50;;;6.60;99.90;;;;;;4990331;28;20466;-67
2022/11/03 04:10:19;;;;;;;3.93;2.50;;;6.60;99.90;;;;;;4989615;28;20178;-67
2022/11/03 04:23:43;;;;;;;10.47;3.37;;;6.50;99.90;;;;;;5010192;28;20521;-68
2022/11/03 04:26:14;;;;;;;5.10;2.80;;;6.50;99.90;;;;;;5010345;28;20909;-68
2022/11/03 04:28:41;;;;;;;6.83;3.10;;;6.50;99.90;;;;;;5011011;28;20219;-68
2022/11/03 04:31:12;;;;;;;8.67;2.97;;;6.50;99.90;;;;;;5010545;28;20406;-68
2022/11/03 04:33:38;;;;;;;5.23;3.20;;;6.50;99.90;;;;;;5010390;28;20439;-67
2022/11/03 04:36:09;;;;;;;5.50;2.77;;;6.50;99.90;;;;;;5008059;28;20547;-67
2022/11/03 04:38:36;;;;;;;4.23;3.57;;;6.50;99.90;;;;;;5012271;28;20438;-67
2022/11/03 04:41:05;;;;;;;6.07;3.00;;;6.50;99.90;;;;;;5030182;28;20461;-67
2022/11/03 04:43:35;;;;;;;6.57;3.43;;;6.50;99.90;;;;;;5008709;28;20438;-67
2022/11/03 04:46:01;;;;;;;4.33;3.40;;;6.60;99.90;;;;;;5013588;28;20415;-68
2022/11/03 04:48:28;;;;;;;6.27;3.30;;;6.60;99.90;;;;;;5012082;28;20477;-68
2022/11/03 04:50:56;;;;;;;6.20;3.20;;;6.60;99.90;;;;;;5014267;28;20411;-67
2022/11/03 04:53:23;;;;;;;4.60;3.10;;;6.70;99.90;;;;;;5031859;28;20871;-66
2022/11/03 04:55:52;;;;;;;6.47;3.03;;;6.70;99.90;;;;;;5034173;28;20429;-67
2022/11/03 04:58:21;;;;;;;8.93;2.90;;;6.70;99.90;;;;;;5034247;28;20585;-67
2022/11/03 05:00:50;;;;;;;10.20;3.43;;;6.70;99.90;;;;;;5034145;28;20477;-68
2022/11/03 05:03:31;;;;;;;3.53;3.00;;;6.80;99.90;;;;;;5016976;28;20474;-67
2022/11/03 05:05:57;;;;;;;8.10;3.63;;;6.80;99.90;;;;;;4992961;28;20974;-67
2022/11/03 05:08:23;;;;;;;5.40;2.40;;;6.80;99.90;;;;;;4993423;28;20404;-68
2022/11/03 05:10:49;;;;;;;9.53;3.10;;;6.80;99.90;;;;;;4994325;28;20404;-68
2022/11/03 05:13:23;;;;;;;9.10;3.43;;;6.80;99.90;;;;;;4993712;28;20910;-68
2022/11/03 05:15:51;;;;;;;5.77;3.67;;;6.80;99.90;;;;;;4994332;28;20972;-68
2022/11/03 05:18:30;;;;;;;8.40;4.07;;;6.70;99.90;;;;;;4994693;28;21075;-67
2022/11/03 05:21:03;;;;;;;4.10;3.30;;;6.70;99.90;;;;;;5002515;28;20854;-68
2022/11/03 05:23:35;;;;;;;4.63;2.83;;;6.70;99.90;;;;;;5013548;28;20410;-67
2022/11/03 05:26:02;;;;;;;5.80;5.10;;;6.60;99.90;;;;;;5013862;28;20413;-67
2022/11/03 05:28:34;;;;;;;9.00;4.47;;;6.50;99.90;;;;;;5009536;28;20438;-67
2022/11/03 05:31:01;;;;;;;5.17;3.30;;;6.50;99.90;;;;;;5011369;28;20411;-67
2022/11/03 05:33:35;;;;;;;4.20;3.60;;;6.40;99.90;;;;;;5009846;28;20431;-67
2022/11/03 05:36:11;;;;;;;8.17;2.90;;;6.40;99.90;;;;;;5008557;28;20438;-68
2022/11/03 05:38:36;;;;;;;5.47;3.20;;;6.40;99.90;;;;;;5011507;28;20427;-69
2022/11/03 05:41:02;;;;;;;7.00;3.20;;;6.30;99.90;;;;;;5016745;28;20454;-68
2022/11/03 05:43:28;;;;;;;10.70;3.60;;;6.30;99.90;;;;;;5021777;28;20236;-69
2022/11/03 05:46:01;;;;;;;6.37;3.27;;;6.30;99.90;;;;;;5040382;28;20402;-69
2022/11/03 05:48:33;;;;;;;5.67;4.13;;;6.40;99.90;;;;;;5037105;28;20402;-68
2022/11/03 05:51:01;;;;;;;3.90;3.20;;;6.30;99.90;;;;;;5031437;28;20410;-68
2022/11/03 05:53:37;;;;;;;6.83;2.93;;;6.40;99.90;;;;;;5022221;28;20410;-68
2022/11/03 05:56:04;;;;;;;5.50;3.60;;;6.30;99.90;;;;;;4995234;28;20520;-68
2022/11/03 05:58:34;;;;;;;4.17;3.03;;;6.30;99.90;;;;;;4993250;28;20907;-68
2022/11/03 06:01:09;;;;;;;6.00;4.33;;;6.30;99.90;;;;;;4993317;28;20454;-67
2022/11/03 06:03:35;;;;;;;2.70;2.50;;;6.30;99.90;;;;;;5001865;28;20404;-67
2022/11/03 06:06:09;;;;;;;9.17;4.03;;;6.30;99.90;;;;;;5012361;28;20769;-67
2022/11/03 06:08:35;;;;;;;5.43;4.07;;;6.30;99.90;;;;;;5010945;28;20427;-67
2022/11/03 06:11:02;;;;;;;4.80;3.37;;;6.30;99.90;;;;;;5005178;28;20461;-66
2022/11/03 06:13:36;;;;;;;10.83;4.50;;;6.30;99.90;;;;;;5003815;28;20424;-67
2022/11/03 06:16:29;;;;;;;8.07;4.30;;;6.30;99.90;;;;;;5009360;28;20951;-66
2022/11/03 06:18:54;;;;;;;8.40;4.60;;;6.30;99.90;;;;;;5011855;28;20429;-67
2022/11/03 06:21:24;;;;;;;4.77;3.57;;;6.30;99.90;;;;;;5022333;28;20551;-67
2022/11/03 06:23:51;;;;;;;8.77;2.97;;;6.30;99.90;;;;;;5013091;28;20781;-67
2022/11/03 06:26:27;;;;;;;15.97;3.43;;;6.50;99.90;;;;;;5007293;28;20443;-66
2022/11/03 06:28:54;;;;;;;9.17;3.70;;;6.40;99.90;;;;;;5007632;28;20407;-67
2022/11/03 06:31:23;;;;;;;7.80;3.37;;;6.40;99.90;;;;;;5014300;28;20505;-66
2022/11/03 06:33:50;;;;;;;7.80;3.67;;;6.30;99.90;;;;;;5020789;28;20443;-68
2022/11/03 06:36:19;;;;;;;7.87;4.30;;;6.40;99.90;;;;;;5022769;28;20492;-68
2022/11/03 06:38:55;;;;;;;7.80;4.37;;;6.50;99.90;;;;;;5033154;28;20823;-68
2022/11/03 06:41:26;;;;;;;12.20;4.40;;;6.40;99.90;;;;;;5032495;28;20457;-68
2022/11/03 06:43:51;;;;;;;4.27;3.27;;;6.40;99.90;;;;;;5033229;28;20864;-67
2022/11/03 06:46:27;;;;;;;11.20;3.70;;;6.30;99.90;;;;;;5032330;28;20418;-69
2022/11/03 06:48:59;;;;;;;5.87;3.60;;;6.40;99.90;;;;;;5018538;28;20172;-68
2022/11/03 06:51:29;;;;;;;8.63;4.07;;;6.30;99.90;;;;;;5007842;28;20461;-70
2022/11/03 06:53:58;;;;;;;6.43;3.40;;;6.40;99.90;;;;;;4992659;28;20506;-68
2022/11/03 06:56:27;;;;;;;6.80;3.83;;;6.40;99.90;;;;;;5009761;28;20489;-68
2022/11/03 06:58:54;;;;;;;4.20;3.77;;;6.40;99.90;;;;;;5009311;28;20420;-69
2022/11/03 07:01:23;;;;;;;5.30;4.47;;;6.40;99.90;;;;;;5006389;28;20474;-69
2022/11/03 07:04:01;;;;;;;7.80;4.60;;;6.50;99.90;;;;;;5010420;28;20490;-69
2022/11/03 07:06:34;;;;;;;8.10;3.90;;;6.50;99.90;;;;;;5006766;28;20442;-69
2022/11/03 07:09:06;;;;;;;6.10;3.90;;;6.50;99.90;;;;;;5010407;28;20407;-69
2022/11/03 07:11:43;;;;;;;9.60;3.13;;;6.60;99.90;;;;;;5012040;28;20423;-68
2022/11/03 07:14:19;;;;;;;6.43;4.20;;;6.90;99.90;;;;;;5012059;28;20500;-67
2022/11/03 07:16:51;;;;;;;4.57;3.23;;;7.10;99.90;;;;;;5011379;28;20407;-68
2022/11/03 07:19:18;;;;;;;7.73;3.30;;;7.10;99.90;;;;;;5011818;28;20413;-67
2022/11/03 07:21:45;;;;;;;9.23;4.10;;;7.30;99.90;;;;;;5011703;28;20941;-68
2022/11/03 07:24:31;;;;;;;8.33;3.27;;;7.50;99.90;;;;;;5004388;28;20499;-68
2022/11/03 07:27:20;;;;;;;6.10;4.10;;;7.70;99.90;;;;;;5009277;28;20441;-68
2022/11/03 07:29:48;;;;;;;13.70;4.00;;;7.70;99.90;;;;;;5005035;28;20427;-68
2022/11/03 07:32:23;;;;;;;5.43;3.87;;;7.80;99.90;;;;;;5011729;28;20457;-67
2022/11/03 07:34:52;;;;;;;7.30;3.07;;;7.90;99.90;;;;;;5009783;28;20523;-67
2022/11/03 07:37:24;;;;;;;4.77;3.13;;;7.90;99.90;;;;;;5012019;28;20405;-68
2022/11/03 07:39:51;;;;;;;9.10;3.10;;;8.10;99.90;;;;;;5006656;28;20460;-68
2022/11/03 07:42:23;;;;;;;7.00;4.30;;;8.30;99.90;;;;;;5012649;28;20787;-67
2022/11/03 07:44:49;;;;;;;11.13;3.63;;;8.50;99.90;;;;;;5002851;28;20457;-69
2022/11/03 07:47:20;;;;;;;11.20;3.90;;;8.60;99.90;;;;;;5010616;28;20556;-68
2022/11/03 07:49:46;;;;;;;6.20;3.20;;;8.80;99.90;;;;;;5000401;28;20422;-67
2022/11/03 07:52:15;;;;;;;4.67;3.47;;;9.40;99.90;;;;;;5009702;28;20407;-67
2022/11/03 07:54:40;;;;;;;5.23;3.03;;;9.80;99.90;;;;;;5012269;28;20566;-67
2022/11/03 07:57:23;;;;;;;4.47;4.07;;;10.50;99.90;;;;;;4997234;28;20939;-68
2022/11/03 07:59:52;;;;;;;6.67;3.70;;;10.90;99.90;;;;;;5003538;28;20539;-68
2022/11/03 08:02:43;;;;;;;10.63;3.57;;;10.70;99.90;;;;;;5003602;28;20430;-67
2022/11/03 08:05:08;;;;;;;4.70;2.63;;;10.90;99.90;;;;;;5020183;28;20516;-68
2022/11/03 08:07:34;;;;;;;5.27;2.70;;;11.20;99.90;;;;;;5007258;28;20843;-68
2022/11/03 08:09:59;;;;;;;3.03;2.73;;;11.10;99.90;;;;;;5004403;28;20172;-68
2022/11/03 08:12:25;;;;;;;5.10;3.27;;;10.90;99.90;;;;;;5015264;28;20165;-69
2022/11/03 08:14:50;;;;;;;7.37;3.77;;;10.80;99.90;;;;;;5025988;28;20326;-68
2022/11/03 08:17:16;;;;;;;3.03;2.73;;;10.80;99.90;;;;;;5034444;23;20173;-76
2022/11/03 08:19:41;;;;;;;5.43;3.53;;;10.70;99.90;;;;;;4989822;28;20302;-74
2022/11/03 08:22:07;;;;;;;3.43;3.00;;;10.20;99.90;;;;;;4993456;28;20177;-75
2022/11/03 08:24:33;;;;;;;8.17;3.60;;;10.00;99.90;;;;;;4991031;28;20180;-75
2022/11/03 08:26:59;;;;;;;6.40;3.57;;;10.00;99.90;;;;;;5002082;28;20928;-76
2022/11/03 08:29:26;;;;;;;6.77;3.23;;;10.50;99.90;;;;;;5003679;28;20330;-75
2022/11/03 08:31:52;;;;;;;3.83;3.17;;;11.40;99.90;;;;;;5004019;28;20643;-76
2022/11/03 08:34:18;;;;;;;6.63;3.13;;;12.20;99.90;;;;;;4998683;28;20964;-74
2022/11/03 08:36:43;;;;;;;7.83;3.37;;;12.60;99.90;;;;;;5005667;28;20473;-75
2022/11/03 08:39:09;;;;;;;3.50;3.00;;;12.90;99.90;;;;;;5005017;28;20219;-75
2022/11/03 08:41:34;;;;;;;5.40;3.13;;;12.70;99.90;;;;;;5002460;28;20211;-75
2022/11/03 08:44:00;;;;;;;4.17;3.37;;;12.90;99.90;;;;;;5005149;28;20173;-75
2022/11/03 08:46:26;;;;;;;5.13;2.23;;;13.10;99.90;;;;;;5000447;28;20169;-75
2022/11/03 08:48:51;;;;;;;2.70;2.10;;;13.30;99.90;;;;;;5002547;28;20220;-75
2022/11/03 08:51:17;;;;;;;5.83;1.93;;;13.00;99.90;;;;;;5001690;28;20616;-75
2022/11/03 08:53:43;;;;;;;4.67;2.50;;;13.00;99.90;;;;;;4998847;28;20237;-75
2022/11/03 08:56:09;;;;;;;5.80;2.60;;;12.30;99.90;;;;;;5001921;28;20275;-76
2022/11/03 08:58:35;;;;;;;5.67;2.50;;;11.90;99.90;;;;;;5001290;28;20436;-76
2022/11/03 09:01:01;;;;;;;4.87;2.20;;;11.70;99.90;;;;;;5002977;28;20514;-76
2022/11/03 09:03:26;;;;;;;3.50;1.83;;;11.60;99.90;;;;;;4999419;28;20700;-75
2022/11/03 09:05:52;;;;;;;5.00;2.63;;;11.70;99.90;;;;;;5003191;28;20173;-76
2022/11/03 09:08:17;;;;;;;3.50;2.10;;;11.40;99.90;;;;;;5000868;28;20193;-75
2022/11/03 09:10:43;;;;;;;2.50;1.90;;;11.30;99.90;;;;;;5003756;28;20271;-75
2022/11/03 09:13:08;;;;;;;3.73;2.20;;;11.50;99.90;;;;;;4998163;28;20176;-75
2022/11/03 09:15:34;;;;;;;3.20;1.80;;;11.70;99.90;;;;;;4998889;28;20255;-75
2022/11/03 09:18:00;;;;;;;4.50;2.63;;;11.90;99.90;;;;;;5000574;28;20214;-75
2022/11/03 09:20:25;;;;;;;5.83;2.50;;;12.00;99.90;;;;;;5005745;28;20197;-76
2022/11/03 09:22:51;;;;;;;6.53;2.37;;;12.10;99.90;;;;;;4997547;28;20522;-76
2022/11/03 09:25:17;;;;;;;8.20;2.50;;;12.30;99.90;;;;;;4998708;28;20208;-74
2022/11/03 09:27:43;;;;;;;10.90;2.33;;;12.10;99.90;;;;;;5002853;28;20729;-75
2022/11/03 09:30:09;;;;;;;5.20;2.53;;;12.10;99.90;;;;;;5003453;28;20407;-75
2022/11/03 09:32:35;;;;;;;4.37;2.40;;;11.90;99.90;;;;;;5000431;28;20228;-75
2022/11/03 09:35:00;;;;;;;4.90;2.00;;;11.90;99.90;;;;;;4997965;28;20442;-75
2022/11/03 09:37:26;;;;;;;5.27;2.20;;;11.90;99.90;;;;;;5002629;28;20208;-75
2022/11/03 09:39:52;;;;;;;12.20;2.70;;;12.00;99.90;;;;;;5002917;28;20256;-75
2022/11/03 09:42:17;;;;;;;5.60;2.00;;;11.80;99.90;;;;;;4998894;28;20423;-75
2022/11/03 09:44:45;;;;;;;3.83;2.43;;;11.70;99.90;;;;;;4999700;28;20226;-75
2022/11/03 09:47:19;;;;;;;3.83;2.70;;;11.70;99.90;;;;;;4997844;28;20924;-75
2022/11/03 09:49:45;;;;;;;2.30;2.10;;;11.80;99.90;;;;;;5001821;28;20411;-75
2022/11/03 09:52:22;;;;;;;4.83;2.30;;;11.80;99.90;;;;;;5001530;28;20495;-75
2022/11/03 09:54:48;;;;;;;2.93;2.37;;;11.80;99.90;;;;;;4999063;28;20665;-74
2022/11/03 09:57:15;;;;;;;6.20;2.70;;;11.70;99.90;;;;;;5001527;28;20418;-75
2022/11/03 09:59:43;;;;;;;5.00;2.97;;;11.70;99.90;;;;;;5000263;28;20419;-74
2022/11/03 10:02:37;;;;;;;6.43;2.73;;;11.60;99.90;;;;;;5000760;28;20408;-75
2022/11/03 10:05:03;;;;;;;4.77;2.57;;;11.70;99.90;;;;;;5000212;28;20478;-75
2022/11/03 10:07:30;;;;;;;6.90;1.90;;;11.80;99.90;;;;;;4997415;28;20436;-75
2022/11/03 10:09:58;;;;;;;2.33;1.77;;;11.70;99.90;;;;;;5001809;28;20426;-75
2022/11/03 10:12:25;;;;;;;4.90;3.07;;;11.70;99.90;;;;;;4998898;28;20404;-75
2022/11/03 10:14:51;;;;;;;7.40;2.47;;;11.80;99.90;;;;;;5001124;28;20789;-75
2022/11/03 10:17:24;;;;;;;5.67;2.00;;;11.80;99.90;;;;;;5002109;28;20931;-75
2022/11/03 10:19:54;;;;;;;5.00;2.30;;;11.80;99.90;;;;;;4999764;28;20420;-75
2022/11/03 10:22:20;;;;;;;4.43;2.20;;;11.90;99.90;;;;;;4999470;28;20412;-75
2022/11/03 10:24:46;;;;;;;9.27;2.37;;;11.90;99.90;;;;;;5001488;28;20421;-75
2022/11/03 10:27:24;;;;;;;8.90;2.40;;;11.90;99.90;;;;;;5003417;28;20416;-74
2022/11/03 10:30:07;;;;;;;4.57;1.93;;;11.80;99.90;;;;;;4995046;28;20403;-74
2022/11/03 10:32:33;;;;;;;4.40;2.17;;;12.00;99.90;;;;;;4997818;28;20419;-75
2022/11/03 10:34:59;;;;;;;5.07;2.00;;;12.10;99.90;;;;;;5001663;28;20405;-76
2022/11/03 10:37:26;;;;;;;11.80;1.87;;;12.30;99.90;;;;;;4997856;28;20486;-76
2022/11/03 10:39:53;;;;;;;3.00;2.27;;;12.30;99.90;;;;;;4992406;28;20921;-76
2022/11/03 10:42:29;;;;;;;3.90;2.07;;;12.40;99.90;;;;;;4992245;28;20416;-76
2022/11/03 10:45:16;;;;;;;3.23;1.70;;;12.40;99.90;;;;;;4992309;28;20404;-76
2022/11/03 10:47:42;;;;;;;3.57;2.17;;;12.50;99.90;;;;;;4983114;28;20456;-74
2022/11/03 10:50:25;;;;;;;2.10;1.90;;;12.40;99.90;;;;;;4991950;28;20470;-75
2022/11/03 10:52:51;;;;;;;3.50;1.80;;;12.60;99.90;;;;;;4987671;28;20423;-75
2022/11/03 10:55:19;;;;;;;3.77;2.57;;;12.50;99.90;;;;;;4991895;28;20438;-75
2022/11/03 10:57:45;;;;;;;2.17;1.83;;;12.50;99.90;;;;;;4992284;28;20443;-72
2022/11/03 11:00:15;;;;;;;3.33;1.67;;;12.70;99.90;;;;;;4992236;28;20552;-76
2022/11/03 11:02:43;;;;;;;3.03;1.90;;;12.70;99.90;;;;;;4992226;28;20412;-76
2022/11/03 11:05:20;;;;;;;6.13;2.20;;;12.70;99.90;;;;;;4991817;28;20475;-70
2022/11/03 11:07:46;;;;;;;3.93;2.40;;;12.80;99.90;;;;;;4992295;28;20468;-75
2022/11/03 11:10:14;;;;;;;6.83;2.80;;;12.80;99.90;;;;;;4991931;28;20438;-70
2022/11/03 11:13:04;;;;;;;5.40;1.90;;;12.80;99.90;;;;;;4991534;28;20424;-75
2022/11/03 11:15:42;;;;;;;3.90;2.33;;;12.70;99.90;;;;;;4990825;28;20419;-75
2022/11/03 11:18:09;;;;;;;5.60;2.10;;;12.90;99.90;;;;;;4991012;28;20455;-75
2022/11/03 11:20:37;;;;;;;9.50;2.63;;;13.00;99.90;;;;;;4989512;28;20470;-75
2022/11/03 11:23:28;;;;;;;6.30;2.97;;;13.00;99.90;;;;;;4992142;28;20408;-75
2022/11/03 11:26:08;;;;;;;8.67;2.20;;;13.00;99.90;;;;;;4978598;28;20944;-74
2022/11/03 11:28:42;;;;;;;2.03;1.50;;;12.80;99.90;;;;;;4988831;28;20834;-75
2022/11/03 11:34:33;;;;;;;4.70;2.37;;;13.00;99.90;;;;;;4988615;28;20479;-75
2022/11/03 11:36:59;;;;;;;6.57;2.77;;;12.90;99.90;;;;;;4973617;28;20920;-75
2022/11/03 11:39:27;;;;;;;4.67;1.70;;;13.00;99.90;;;;;;4981258;28;20516;-75
2022/11/03 11:42:19;;;;;;;2.70;1.80;;;13.00;99.90;;;;;;4991585;28;20632;-75
2022/11/03 11:44:56;;;;;;;3.70;2.40;;;13.00;99.90;;;;;;4992558;28;20400;-74
2022/11/03 11:47:42;;;;;;;7.90;2.53;;;13.20;99.90;;;;;;4993098;28;20427;-75
2022/11/03 11:50:10;;;;;;;2.53;1.70;;;13.10;99.90;;;;;;4986204;28;20926;-75
2022/11/03 11:52:59;;;;;;;3.87;2.50;;;13.10;99.90;;;;;;4991592;28;20416;-75
2022/11/03 11:55:49;;;;;;;2.40;1.97;;;13.20;99.90;;;;;;4991253;28;20458;-75
2022/11/03 11:58:19;;;;;;;2.70;1.70;;;13.20;99.90;;;;;;4991838;28;20432;-75
2022/11/03 12:00:56;;;;;;;4.83;2.57;;;13.10;99.90;;;;;;4984176;28;20547;-75
2022/11/03 12:03:27;;;;;;;7.60;2.70;;;13.30;99.90;;;;;;4981983;28;20435;-77
2022/11/03 12:05:53;;;;;;;6.67;2.00;;;13.20;99.90;;;;;;4992014;28;20452;-74
2022/11/03 12:08:29;;;;;;;5.50;1.97;;;13.10;99.90;;;;;;4976000;28;20480;-75
2022/11/03 12:10:58;;;;;;;3.07;2.10;;;13.00;99.90;;;;;;4975988;28;20173;-75
2022/11/03 12:13:43;;;;;;;3.57;2.13;;;12.90;99.90;;;;;;4982875;28;20421;-74
2022/11/03 12:16:24;;;;;;;3.10;2.20;;;13.00;99.90;;;;;;4986738;28;20416;-75
2022/11/03 12:18:50;;;;;;;3.73;2.10;;;13.00;99.90;;;;;;4976661;28;20463;-75
2022/11/03 12:21:45;;;;;;;3.87;2.20;;;12.80;99.90;;;;;;4990248;28;20475;-74
2022/11/03 12:24:29;;;;;;;4.53;1.77;;;12.90;99.90;;;;;;4986922;28;20193;-75
2022/11/03 12:26:55;;;;;;;6.13;2.30;;;12.90;99.90;;;;;;4988059;28;20423;-77
2022/11/03 12:29:21;;;;;;;4.93;2.00;;;12.80;99.90;;;;;;4990145;28;20424;-74
2022/11/03 12:31:47;;;;;;;4.50;2.30;;;12.80;99.90;;;;;;4991085;28;20419;-74
2022/11/03 12:34:13;;;;;;;4.53;2.73;;;12.80;99.90;;;;;;4991687;28;20327;-74
2022/11/03 12:36:38;;;;;;;9.97;2.57;;;12.90;99.90;;;;;;4991837;28;20934;-74
2022/11/03 12:39:04;;;;;;;3.07;2.10;;;12.90;99.90;;;;;;4994532;28;20547;-74
2022/11/03 12:41:29;;;;;;;3.27;2.40;;;12.90;99.90;;;;;;4991268;28;20193;-74
2022/11/03 12:43:55;;;;;;;3.80;1.80;;;12.90;99.90;;;;;;4991389;28;20207;-74
2022/11/03 12:46:22;;;;;;;4.97;1.97;;;12.90;99.90;;;;;;4990899;28;20613;-74
2022/11/03 12:48:48;;;;;;;3.27;1.73;;;13.00;99.90;;;;;;4990783;28;20271;-74
2022/11/03 12:51:33;;;;;;;4.83;2.40;;;13.00;99.90;;;;;;4990640;28;20411;-74
2022/11/03 12:53:58;;;;;;;2.37;2.10;;;12.90;99.90;;;;;;4990901;28;20411;-74
2022/11/03 12:56:24;;;;;;;4.17;1.80;;;12.80;99.90;;;;;;4990412;28;20462;-74
2022/11/03 12:58:49;;;;;;;5.60;1.97;;;12.90;99.90;;;;;;4993939;28;20189;-74
2022/11/03 13:01:15;;;;;;;3.10;2.63;;;13.00;99.90;;;;;;4994242;28;20208;-75
2022/11/03 13:03:42;;;;;;;4.30;2.20;;;13.10;99.90;;;;;;4994671;28;20169;-73
2022/11/03 13:06:09;;;;;;;3.60;2.20;;;13.10;99.90;;;;;;4991456;28;20235;-73
2022/11/03 13:08:35;;;;;;;2.23;2.03;;;13.10;99.90;;;;;;4993049;28;20472;-74
2022/11/03 13:11:00;;;;;;;2.80;1.90;;;13.10;99.90;;;;;;4994432;28;20906;-74
2022/11/03 13:13:26;;;;;;;4.93;1.97;;;13.20;99.90;;;;;;4994878;28;20458;-74
2022/11/03 13:15:52;;;;;;;13.63;7.93;;;13.20;99.90;;;;;;4994265;28;20181;-74
2022/11/03 13:18:19;;;;;;;15.07;6.60;;;13.10;99.90;;;;;;4991366;28;20630;-74
2022/11/03 13:20:44;;;;;;;4.50;2.77;;;13.10;99.90;;;;;;4994426;28;20199;-73
2022/11/03 13:23:10;;;;;;;8.40;3.00;;;13.00;99.90;;;;;;4990565;28;20428;-73
2022/11/03 13:25:35;;;;;;;5.23;4.00;;;13.00;99.90;;;;;;4990941;28;20180;-73
2022/11/03 13:28:02;;;;;;;4.97;3.23;;;13.00;99.90;;;;;;4991818;28;20189;-73